sensor_id;sensor_type;location;lat;lon;timestamp;P1;durP1;ratioP1;P2;durP2;ratioP2
15573;SDS011;7888;46.748;8.102;2022-11-20T00:01:04;1.60;;;1.07;;
15573;SDS011;7888;46.748;8.102;2022-11-20T00:03:45;2.50;;;1.40;;
15573;SDS011;7888;46.748;8.102;2022-11-20T00:06:15;1.03;;;0.93;;
15573;SDS011;7888;46.748;8.102;2022-11-20T00:08:43;1.20;;;1.03;;
15573;SDS011;7888;46.748;8.102;2022-11-20T00:11:12;1.00;;;0.90;;
15573;SDS011;7888;46.748;8.102;2022-11-20T00:13:41;2.20;;;1.00;;
15573;SDS011;7888;46.748;8.102;2022-11-20T00:16:12;1.17;;;0.80;;
15573;SDS011;7888;46.748;8.102;2022-11-20T00:18:41;0.70;;;0.70;;
15573;SDS011;7888;46.748;8.102;2022-11-20T00:21:11;4.60;;;0.80;;
15573;SDS011;7888;46.748;8.102;2022-11-20T00:23:43;0.80;;;0.70;;
15573;SDS011;7888;46.748;8.102;2022-11-20T00:26:10;0.93;;;0.87;;
15573;SDS011;7888;46.748;8.102;2022-11-20T00:28:39;0.60;;;0.60;;
15573;SDS011;7888;46.748;8.102;2022-11-20T00:31:06;0.80;;;0.80;;
15573;SDS011;7888;46.748;8.102;2022-11-20T00:33:36;1.27;;;0.90;;
15573;SDS011;7888;46.748;8.102;2022-11-20T00:36:06;2.87;;;1.10;;
15573;SDS011;7888;46.748;8.102;2022-11-20T00:38:35;1.83;;;1.00;;
15573;SDS011;7888;46.748;8.102;2022-11-20T00:41:03;1.10;;;1.00;;
15573;SDS011;7888;46.748;8.102;2022-11-20T00:43:32;0.97;;;0.83;;
15573;SDS011;7888;46.748;8.102;2022-11-20T00:45:59;0.80;;;0.80;;
15573;SDS011;7888;46.748;8.102;2022-11-20T00:48:31;0.80;;;0.70;;
15573;SDS011;7888;46.748;8.102;2022-11-20T00:50:58;2.20;;;0.93;;
15573;SDS011;7888;46.748;8.102;2022-11-20T00:53:24;1.30;;;0.93;;
15573;SDS011;7888;46.748;8.102;2022-11-20T00:55:57;4.30;;;1.00;;
15573;SDS011;7888;46.748;8.102;2022-11-20T00:58:30;1.07;;;0.97;;
15573;SDS011;7888;46.748;8.102;2022-11-20T01:01:03;1.07;;;0.90;;
15573;SDS011;7888;46.748;8.102;2022-11-20T01:03:37;1.10;;;0.80;;
15573;SDS011;7888;46.748;8.102;2022-11-20T01:06:10;3.23;;;1.00;;
15573;SDS011;7888;46.748;8.102;2022-11-20T01:08:45;0.77;;;0.77;;
15573;SDS011;7888;46.748;8.102;2022-11-20T01:11:16;0.83;;;0.63;;
15573;SDS011;7888;46.748;8.102;2022-11-20T01:13:46;1.00;;;0.80;;
15573;SDS011;7888;46.748;8.102;2022-11-20T01:16:17;1.70;;;0.83;;
15573;SDS011;7888;46.748;8.102;2022-11-20T01:18:48;0.80;;;0.80;;
15573;SDS011;7888;46.748;8.102;2022-11-20T01:21:18;1.10;;;0.80;;
15573;SDS011;7888;46.748;8.102;2022-11-20T01:23:52;1.43;;;0.70;;
15573;SDS011;7888;46.748;8.102;2022-11-20T01:26:23;1.03;;;0.67;;
15573;SDS011;7888;46.748;8.102;2022-11-20T01:28:52;0.80;;;0.80;;
15573;SDS011;7888;46.748;8.102;2022-11-20T01:31:22;0.80;;;0.80;;
15573;SDS011;7888;46.748;8.102;2022-11-20T01:33:52;0.50;;;0.50;;
15573;SDS011;7888;46.748;8.102;2022-11-20T01:36:21;0.90;;;0.70;;
15573;SDS011;7888;46.748;8.102;2022-11-20T01:39:09;0.93;;;0.70;;
15573;SDS011;7888;46.748;8.102;2022-11-20T01:41:42;0.70;;;0.70;;
15573;SDS011;7888;46.748;8.102;2022-11-20T01:47:18;1.50;;;0.73;;
15573;SDS011;7888;46.748;8.102;2022-11-20T01:53:02;0.90;;;0.70;;
15573;SDS011;7888;46.748;8.102;2022-11-20T01:55:33;0.80;;;0.80;;
15573;SDS011;7888;46.748;8.102;2022-11-20T01:58:04;2.43;;;0.80;;
15573;SDS011;7888;46.748;8.102;2022-11-20T02:00:31;0.63;;;0.63;;
15573;SDS011;7888;46.748;8.102;2022-11-20T02:02:58;0.87;;;0.60;;
15573;SDS011;7888;46.748;8.102;2022-11-20T02:08:20;1.00;;;0.70;;
15573;SDS011;7888;46.748;8.102;2022-11-20T02:10:48;1.23;;;0.63;;
15573;SDS011;7888;46.748;8.102;2022-11-20T02:13:14;1.77;;;0.90;;
15573;SDS011;7888;46.748;8.102;2022-11-20T02:15:59;3.10;;;1.20;;
15573;SDS011;7888;46.748;8.102;2022-11-20T02:18:27;2.13;;;0.70;;
15573;SDS011;7888;46.748;8.102;2022-11-20T02:21:02;1.40;;;0.80;;
15573;SDS011;7888;46.748;8.102;2022-11-20T02:23:38;1.10;;;0.77;;
15573;SDS011;7888;46.748;8.102;2022-11-20T02:26:28;1.13;;;0.87;;
15573;SDS011;7888;46.748;8.102;2022-11-20T02:28:58;0.87;;;0.70;;
15573;SDS011;7888;46.748;8.102;2022-11-20T02:31:27;1.13;;;0.73;;
15573;SDS011;7888;46.748;8.102;2022-11-20T02:33:58;1.47;;;0.60;;
15573;SDS011;7888;46.748;8.102;2022-11-20T02:36:26;1.30;;;0.97;;
15573;SDS011;7888;46.748;8.102;2022-11-20T02:38:54;1.30;;;0.90;;
15573;SDS011;7888;46.748;8.102;2022-11-20T02:41:20;1.30;;;0.97;;
15573;SDS011;7888;46.748;8.102;2022-11-20T02:43:47;1.20;;;1.10;;
15573;SDS011;7888;46.748;8.102;2022-11-20T02:46:12;1.70;;;1.27;;
15573;SDS011;7888;46.748;8.102;2022-11-20T02:48:38;1.53;;;1.23;;
15573;SDS011;7888;46.748;8.102;2022-11-20T02:51:04;1.70;;;0.90;;
15573;SDS011;7888;46.748;8.102;2022-11-20T02:53:30;1.20;;;1.10;;
15573;SDS011;7888;46.748;8.102;2022-11-20T02:55:56;1.83;;;0.90;;
15573;SDS011;7888;46.748;8.102;2022-11-20T02:58:22;1.20;;;1.10;;
15573;SDS011;7888;46.748;8.102;2022-11-20T03:00:47;1.37;;;0.70;;
15573;SDS011;7888;46.748;8.102;2022-11-20T03:03:13;1.13;;;0.77;;
15573;SDS011;7888;46.748;8.102;2022-11-20T03:05:39;1.33;;;0.77;;
15573;SDS011;7888;46.748;8.102;2022-11-20T03:08:05;1.03;;;0.63;;
15573;SDS011;7888;46.748;8.102;2022-11-20T03:10:31;1.50;;;0.90;;
15573;SDS011;7888;46.748;8.102;2022-11-20T03:12:56;0.70;;;0.70;;
15573;SDS011;7888;46.748;8.102;2022-11-20T03:15:23;0.80;;;0.80;;
15573;SDS011;7888;46.748;8.102;2022-11-20T03:17:49;1.00;;;0.80;;
15573;SDS011;7888;46.748;8.102;2022-11-20T03:20:18;0.97;;;0.80;;
15573;SDS011;7888;46.748;8.102;2022-11-20T03:22:44;0.90;;;0.70;;
15573;SDS011;7888;46.748;8.102;2022-11-20T03:25:10;0.60;;;0.60;;
15573;SDS011;7888;46.748;8.102;2022-11-20T03:27:36;0.90;;;0.77;;
15573;SDS011;7888;46.748;8.102;2022-11-20T03:30:02;1.13;;;1.00;;
15573;SDS011;7888;46.748;8.102;2022-11-20T03:32:29;1.60;;;0.90;;
15573;SDS011;7888;46.748;8.102;2022-11-20T03:34:55;2.57;;;0.90;;
15573;SDS011;7888;46.748;8.102;2022-11-20T03:37:21;1.57;;;0.80;;
15573;SDS011;7888;46.748;8.102;2022-11-20T03:39:47;1.27;;;0.80;;
15573;SDS011;7888;46.748;8.102;2022-11-20T03:42:13;1.90;;;0.87;;
15573;SDS011;7888;46.748;8.102;2022-11-20T03:44:57;0.80;;;0.80;;
15573;SDS011;7888;46.748;8.102;2022-11-20T03:47:23;1.77;;;0.90;;
15573;SDS011;7888;46.748;8.102;2022-11-20T03:49:49;1.07;;;0.90;;
15573;SDS011;7888;46.748;8.102;2022-11-20T03:52:14;1.20;;;0.83;;
15573;SDS011;7888;46.748;8.102;2022-11-20T03:54:40;1.00;;;0.77;;
15573;SDS011;7888;46.748;8.102;2022-11-20T03:57:06;0.97;;;0.77;;
15573;SDS011;7888;46.748;8.102;2022-11-20T03:59:32;1.27;;;0.93;;
15573;SDS011;7888;46.748;8.102;2022-11-20T04:01:58;2.60;;;1.23;;
15573;SDS011;7888;46.748;8.102;2022-11-20T04:04:24;1.13;;;0.83;;
15573;SDS011;7888;46.748;8.102;2022-11-20T04:06:50;0.90;;;0.70;;
15573;SDS011;7888;46.748;8.102;2022-11-20T04:09:15;1.73;;;0.90;;
15573;SDS011;7888;46.748;8.102;2022-11-20T04:11:41;1.77;;;0.90;;
15573;SDS011;7888;46.748;8.102;2022-11-20T04:14:11;1.13;;;1.00;;
15573;SDS011;7888;46.748;8.102;2022-11-20T04:16:40;1.87;;;0.77;;
15573;SDS011;7888;46.748;8.102;2022-11-20T04:19:08;1.70;;;0.90;;
15573;SDS011;7888;46.748;8.102;2022-11-20T04:21:40;1.27;;;0.80;;
15573;SDS011;7888;46.748;8.102;2022-11-20T04:24:07;0.90;;;0.70;;
15573;SDS011;7888;46.748;8.102;2022-11-20T04:26:35;1.53;;;0.70;;
15573;SDS011;7888;46.748;8.102;2022-11-20T04:29:02;0.93;;;0.67;;
15573;SDS011;7888;46.748;8.102;2022-11-20T04:31:29;1.20;;;0.70;;
15573;SDS011;7888;46.748;8.102;2022-11-20T04:33:59;1.07;;;0.67;;
15573;SDS011;7888;46.748;8.102;2022-11-20T04:36:28;0.80;;;0.80;;
15573;SDS011;7888;46.748;8.102;2022-11-20T04:38:58;0.60;;;0.60;;
15573;SDS011;7888;46.748;8.102;2022-11-20T04:41:28;1.13;;;0.73;;
15573;SDS011;7888;46.748;8.102;2022-11-20T04:43:58;0.73;;;0.60;;
15573;SDS011;7888;46.748;8.102;2022-11-20T04:46:28;2.30;;;0.87;;
15573;SDS011;7888;46.748;8.102;2022-11-20T04:49:00;1.83;;;0.80;;
15573;SDS011;7888;46.748;8.102;2022-11-20T04:51:26;0.97;;;0.80;;
15573;SDS011;7888;46.748;8.102;2022-11-20T04:53:53;1.30;;;0.60;;
15573;SDS011;7888;46.748;8.102;2022-11-20T04:56:19;2.00;;;1.30;;
15573;SDS011;7888;46.748;8.102;2022-11-20T04:58:45;2.20;;;0.73;;
15573;SDS011;7888;46.748;8.102;2022-11-20T05:01:15;0.80;;;0.70;;
15573;SDS011;7888;46.748;8.102;2022-11-20T05:03:44;1.20;;;0.80;;
15573;SDS011;7888;46.748;8.102;2022-11-20T05:06:11;0.80;;;0.80;;
15573;SDS011;7888;46.748;8.102;2022-11-20T05:08:41;0.87;;;0.70;;
15573;SDS011;7888;46.748;8.102;2022-11-20T05:11:17;0.90;;;0.70;;
15573;SDS011;7888;46.748;8.102;2022-11-20T05:13:45;2.33;;;0.80;;
15573;SDS011;7888;46.748;8.102;2022-11-20T05:16:16;2.50;;;0.90;;
15573;SDS011;7888;46.748;8.102;2022-11-20T05:18:47;0.83;;;0.70;;
15573;SDS011;7888;46.748;8.102;2022-11-20T05:21:15;0.80;;;0.77;;
15573;SDS011;7888;46.748;8.102;2022-11-20T05:23:42;0.80;;;0.60;;
15573;SDS011;7888;46.748;8.102;2022-11-20T05:26:27;0.97;;;0.50;;
15573;SDS011;7888;46.748;8.102;2022-11-20T05:28:53;1.23;;;0.70;;
15573;SDS011;7888;46.748;8.102;2022-11-20T05:31:20;0.60;;;0.60;;
15573;SDS011;7888;46.748;8.102;2022-11-20T05:33:48;1.50;;;0.80;;
15573;SDS011;7888;46.748;8.102;2022-11-20T05:36:14;1.00;;;0.80;;
15573;SDS011;7888;46.748;8.102;2022-11-20T05:38:41;2.13;;;0.87;;
15573;SDS011;7888;46.748;8.102;2022-11-20T05:41:12;1.70;;;0.73;;
15573;SDS011;7888;46.748;8.102;2022-11-20T05:43:42;2.17;;;1.10;;
15573;SDS011;7888;46.748;8.102;2022-11-20T05:46:10;1.40;;;0.90;;
15573;SDS011;7888;46.748;8.102;2022-11-20T05:48:39;0.83;;;0.70;;
15573;SDS011;7888;46.748;8.102;2022-11-20T05:51:08;1.57;;;1.00;;
15573;SDS011;7888;46.748;8.102;2022-11-20T05:53:37;1.30;;;0.87;;
15573;SDS011;7888;46.748;8.102;2022-11-20T05:56:07;0.70;;;0.70;;
15573;SDS011;7888;46.748;8.102;2022-11-20T05:58:39;1.27;;;0.90;;
15573;SDS011;7888;46.748;8.102;2022-11-20T06:01:13;0.73;;;0.70;;
15573;SDS011;7888;46.748;8.102;2022-11-20T06:03:46;1.50;;;1.00;;
15573;SDS011;7888;46.748;8.102;2022-11-20T06:06:15;1.40;;;0.90;;
15573;SDS011;7888;46.748;8.102;2022-11-20T06:08:43;0.90;;;0.80;;
15573;SDS011;7888;46.748;8.102;2022-11-20T06:11:10;0.97;;;0.80;;
15573;SDS011;7888;46.748;8.102;2022-11-20T06:13:38;0.80;;;0.77;;
15573;SDS011;7888;46.748;8.102;2022-11-20T06:16:05;2.03;;;1.10;;
15573;SDS011;7888;46.748;8.102;2022-11-20T06:18:31;1.03;;;0.80;;
15573;SDS011;7888;46.748;8.102;2022-11-20T06:21:04;2.63;;;1.10;;
15573;SDS011;7888;46.748;8.102;2022-11-20T06:23:34;1.00;;;0.70;;
15573;SDS011;7888;46.748;8.102;2022-11-20T06:26:04;2.40;;;1.43;;
15573;SDS011;7888;46.748;8.102;2022-11-20T06:28:36;2.30;;;1.30;;
15573;SDS011;7888;46.748;8.102;2022-11-20T06:31:03;4.07;;;1.70;;
15573;SDS011;7888;46.748;8.102;2022-11-20T06:33:30;2.50;;;1.70;;
15573;SDS011;7888;46.748;8.102;2022-11-20T06:35:57;3.53;;;2.10;;
15573;SDS011;7888;46.748;8.102;2022-11-20T06:38:25;2.50;;;1.87;;
15573;SDS011;7888;46.748;8.102;2022-11-20T06:40:52;5.07;;;3.43;;
15573;SDS011;7888;46.748;8.102;2022-11-20T06:43:18;12.23;;;9.13;;
15573;SDS011;7888;46.748;8.102;2022-11-20T06:45:44;18.40;;;11.83;;
15573;SDS011;7888;46.748;8.102;2022-11-20T06:48:10;14.90;;;10.50;;
15573;SDS011;7888;46.748;8.102;2022-11-20T06:50:37;12.93;;;9.37;;
15573;SDS011;7888;46.748;8.102;2022-11-20T06:53:03;6.50;;;4.83;;
15573;SDS011;7888;46.748;8.102;2022-11-20T06:55:30;3.33;;;2.47;;
15573;SDS011;7888;46.748;8.102;2022-11-20T06:57:57;4.27;;;2.07;;
15573;SDS011;7888;46.748;8.102;2022-11-20T07:00:23;2.23;;;1.73;;
15573;SDS011;7888;46.748;8.102;2022-11-20T07:02:50;2.40;;;2.20;;
15573;SDS011;7888;46.748;8.102;2022-11-20T07:05:16;3.03;;;2.20;;
15573;SDS011;7888;46.748;8.102;2022-11-20T07:07:42;2.37;;;2.03;;
15573;SDS011;7888;46.748;8.102;2022-11-20T07:10:09;3.60;;;2.60;;
15573;SDS011;7888;46.748;8.102;2022-11-20T07:12:35;2.97;;;2.40;;
15573;SDS011;7888;46.748;8.102;2022-11-20T07:15:01;3.00;;;2.10;;
15573;SDS011;7888;46.748;8.102;2022-11-20T07:17:27;2.50;;;2.10;;
15573;SDS011;7888;46.748;8.102;2022-11-20T07:19:53;3.07;;;2.20;;
15573;SDS011;7888;46.748;8.102;2022-11-20T07:22:19;2.63;;;2.23;;
15573;SDS011;7888;46.748;8.102;2022-11-20T07:24:46;2.43;;;2.23;;
15573;SDS011;7888;46.748;8.102;2022-11-20T07:27:13;4.43;;;2.33;;
15573;SDS011;7888;46.748;8.102;2022-11-20T07:29:39;2.97;;;2.50;;
15573;SDS011;7888;46.748;8.102;2022-11-20T07:32:05;1.83;;;1.50;;
15573;SDS011;7888;46.748;8.102;2022-11-20T07:34:30;1.90;;;1.27;;
15573;SDS011;7888;46.748;8.102;2022-11-20T07:36:56;1.10;;;1.00;;
15573;SDS011;7888;46.748;8.102;2022-11-20T07:39:22;0.70;;;0.70;;
15573;SDS011;7888;46.748;8.102;2022-11-20T07:41:48;1.80;;;1.23;;
15573;SDS011;7888;46.748;8.102;2022-11-20T07:44:14;1.60;;;1.00;;
15573;SDS011;7888;46.748;8.102;2022-11-20T07:46:39;2.97;;;1.20;;
15573;SDS011;7888;46.748;8.102;2022-11-20T07:49:05;2.00;;;1.20;;
15573;SDS011;7888;46.748;8.102;2022-11-20T07:51:31;3.37;;;1.40;;
15573;SDS011;7888;46.748;8.102;2022-11-20T07:53:57;2.87;;;1.10;;
15573;SDS011;7888;46.748;8.102;2022-11-20T07:56:23;2.53;;;1.00;;
15573;SDS011;7888;46.748;8.102;2022-11-20T07:58:48;1.13;;;0.80;;
15573;SDS011;7888;46.748;8.102;2022-11-20T08:01:14;2.23;;;0.80;;
15573;SDS011;7888;46.748;8.102;2022-11-20T08:03:40;0.80;;;0.80;;
15573;SDS011;7888;46.748;8.102;2022-11-20T08:06:06;0.83;;;0.70;;
15573;SDS011;7888;46.748;8.102;2022-11-20T08:08:32;0.90;;;0.73;;
15573;SDS011;7888;46.748;8.102;2022-11-20T08:10:58;1.37;;;0.60;;
15573;SDS011;7888;46.748;8.102;2022-11-20T08:13:43;1.57;;;0.90;;
15573;SDS011;7888;46.748;8.102;2022-11-20T08:16:28;2.20;;;1.10;;
15573;SDS011;7888;46.748;8.102;2022-11-20T08:18:54;1.40;;;1.10;;
15573;SDS011;7888;46.748;8.102;2022-11-20T08:21:20;1.43;;;1.23;;
15573;SDS011;7888;46.748;8.102;2022-11-20T08:23:46;1.27;;;1.17;;
15573;SDS011;7888;46.748;8.102;2022-11-20T08:26:12;1.30;;;1.20;;
15573;SDS011;7888;46.748;8.102;2022-11-20T08:28:37;3.00;;;1.70;;
15573;SDS011;7888;46.748;8.102;2022-11-20T08:31:03;2.87;;;1.60;;
15573;SDS011;7888;46.748;8.102;2022-11-20T08:33:29;1.30;;;1.20;;
15573;SDS011;7888;46.748;8.102;2022-11-20T08:36:01;2.20;;;1.40;;
15573;SDS011;7888;46.748;8.102;2022-11-20T08:38:28;1.93;;;1.70;;
15573;SDS011;7888;46.748;8.102;2022-11-20T08:40:58;2.20;;;1.13;;
15573;SDS011;7888;46.748;8.102;2022-11-20T08:43:45;1.83;;;1.70;;
15573;SDS011;7888;46.748;8.102;2022-11-20T08:46:11;1.83;;;1.10;;
15573;SDS011;7888;46.748;8.102;2022-11-20T08:48:37;3.10;;;1.53;;
15573;SDS011;7888;46.748;8.102;2022-11-20T08:51:03;2.17;;;1.37;;
15573;SDS011;7888;46.748;8.102;2022-11-20T08:53:29;1.80;;;1.20;;
15573;SDS011;7888;46.748;8.102;2022-11-20T08:55:58;1.43;;;0.97;;
15573;SDS011;7888;46.748;8.102;2022-11-20T08:58:25;2.17;;;1.20;;
15573;SDS011;7888;46.748;8.102;2022-11-20T09:00:51;1.37;;;1.27;;
15573;SDS011;7888;46.748;8.102;2022-11-20T09:03:17;1.50;;;0.73;;
15573;SDS011;7888;46.748;8.102;2022-11-20T09:05:43;2.20;;;1.20;;
15573;SDS011;7888;46.748;8.102;2022-11-20T09:08:09;1.77;;;0.93;;
15573;SDS011;7888;46.748;8.102;2022-11-20T09:10:35;1.20;;;1.13;;
15573;SDS011;7888;46.748;8.102;2022-11-20T09:13:04;1.23;;;1.13;;
15573;SDS011;7888;46.748;8.102;2022-11-20T09:15:31;1.30;;;1.20;;
15573;SDS011;7888;46.748;8.102;2022-11-20T09:17:58;1.20;;;1.10;;
15573;SDS011;7888;46.748;8.102;2022-11-20T09:20:31;1.37;;;0.90;;
15573;SDS011;7888;46.748;8.102;2022-11-20T09:22:57;1.33;;;1.00;;
15573;SDS011;7888;46.748;8.102;2022-11-20T09:25:23;1.20;;;1.10;;
15573;SDS011;7888;46.748;8.102;2022-11-20T09:27:58;1.90;;;1.27;;
15573;SDS011;7888;46.748;8.102;2022-11-20T09:30:25;1.23;;;1.13;;
15573;SDS011;7888;46.748;8.102;2022-11-20T09:32:52;1.63;;;1.10;;
15573;SDS011;7888;46.748;8.102;2022-11-20T09:35:18;1.20;;;1.10;;
15573;SDS011;7888;46.748;8.102;2022-11-20T09:37:44;1.20;;;1.10;;
15573;SDS011;7888;46.748;8.102;2022-11-20T09:40:20;2.03;;;1.40;;
15573;SDS011;7888;46.748;8.102;2022-11-20T09:42:52;1.30;;;1.00;;
15573;SDS011;7888;46.748;8.102;2022-11-20T09:46:12;1.63;;;1.27;;
15573;SDS011;7888;46.748;8.102;2022-11-20T09:52:00;0.90;;;0.73;;
15573;SDS011;7888;46.748;8.102;2022-11-20T09:54:47;0.80;;;0.80;;
15573;SDS011;7888;46.748;8.102;2022-11-20T09:57:17;0.90;;;0.70;;
15573;SDS011;7888;46.748;8.102;2022-11-20T09:59:50;1.10;;;0.77;;
15573;SDS011;7888;46.748;8.102;2022-11-20T10:04:49;1.00;;;0.90;;
15573;SDS011;7888;46.748;8.102;2022-11-20T10:10:31;2.07;;;0.90;;
15573;SDS011;7888;46.748;8.102;2022-11-20T10:16:19;2.40;;;0.80;;
15573;SDS011;7888;46.748;8.102;2022-11-20T10:21:44;1.93;;;0.70;;
15573;SDS011;7888;46.748;8.102;2022-11-20T10:30:34;0.83;;;0.60;;
15573;SDS011;7888;46.748;8.102;2022-11-20T10:33:17;1.43;;;0.60;;
15573;SDS011;7888;46.748;8.102;2022-11-20T10:35:52;0.70;;;0.60;;
15573;SDS011;7888;46.748;8.102;2022-11-20T10:38:57;0.73;;;0.67;;
15573;SDS011;7888;46.748;8.102;2022-11-20T10:41:37;0.97;;;0.70;;
15573;SDS011;7888;46.748;8.102;2022-11-20T10:44:15;1.17;;;0.40;;
15573;SDS011;7888;46.748;8.102;2022-11-20T10:47:11;1.73;;;0.70;;
15573;SDS011;7888;46.748;8.102;2022-11-20T10:49:43;1.47;;;0.77;;
15573;SDS011;7888;46.748;8.102;2022-11-20T10:55:07;1.07;;;0.67;;
15573;SDS011;7888;46.748;8.102;2022-11-20T11:00:38;0.40;;;0.40;;
15573;SDS011;7888;46.748;8.102;2022-11-20T11:03:07;0.50;;;0.50;;
15573;SDS011;7888;46.748;8.102;2022-11-20T11:06:02;0.43;;;0.40;;
15573;SDS011;7888;46.748;8.102;2022-11-20T11:08:37;1.17;;;0.57;;
15573;SDS011;7888;46.748;8.102;2022-11-20T11:11:19;1.50;;;0.63;;
15573;SDS011;7888;46.748;8.102;2022-11-20T11:14:05;1.60;;;0.60;;
15573;SDS011;7888;46.748;8.102;2022-11-20T11:16:32;2.17;;;0.77;;
15573;SDS011;7888;46.748;8.102;2022-11-20T11:19:05;1.03;;;0.80;;
15573;SDS011;7888;46.748;8.102;2022-11-20T11:21:38;3.20;;;0.83;;
15573;SDS011;7888;46.748;8.102;2022-11-20T11:26:55;4.27;;;1.30;;
15573;SDS011;7888;46.748;8.102;2022-11-20T11:29:31;0.60;;;0.60;;
15573;SDS011;7888;46.748;8.102;2022-11-20T11:32:08;1.23;;;0.70;;
15573;SDS011;7888;46.748;8.102;2022-11-20T11:34:38;0.93;;;0.60;;
15573;SDS011;7888;46.748;8.102;2022-11-20T11:37:05;0.75;;;0.70;;
15573;SDS011;7888;46.748;8.102;2022-11-20T11:39:42;0.68;;;0.63;;
15573;SDS011;7888;46.748;8.102;2022-11-20T11:42:12;0.95;;;0.60;;
15573;SDS011;7888;46.748;8.102;2022-11-20T11:44:44;1.85;;;0.70;;
15573;SDS011;7888;46.748;8.102;2022-11-20T11:52:36;0.90;;;0.90;;
15573;SDS011;7888;46.748;8.102;2022-11-20T11:55:44;0.93;;;0.80;;
15573;SDS011;7888;46.748;8.102;2022-11-20T12:07:19;1.30;;;0.60;;
15573;SDS011;7888;46.748;8.102;2022-11-20T12:10:09;0.70;;;0.50;;
15573;SDS011;7888;46.748;8.102;2022-11-20T12:12:50;1.40;;;0.90;;
15573;SDS011;7888;46.748;8.102;2022-11-20T12:15:29;1.30;;;1.07;;
15573;SDS011;7888;46.748;8.102;2022-11-20T12:17:58;1.10;;;1.00;;
15573;SDS011;7888;46.748;8.102;2022-11-20T12:20:32;1.60;;;1.40;;
15573;SDS011;7888;46.748;8.102;2022-11-20T12:23:26;1.90;;;1.40;;
15573;SDS011;7888;46.748;8.102;2022-11-20T12:26:40;1.50;;;1.20;;
15573;SDS011;7888;46.748;8.102;2022-11-20T12:32:14;2.43;;;1.00;;
15573;SDS011;7888;46.748;8.102;2022-11-20T12:38:01;1.07;;;0.80;;
15573;SDS011;7888;46.748;8.102;2022-11-20T12:44:30;0.73;;;0.60;;
15573;SDS011;7888;46.748;8.102;2022-11-20T12:56:52;1.87;;;0.80;;
15573;SDS011;7888;46.748;8.102;2022-11-20T13:02:34;2.47;;;0.93;;
15573;SDS011;7888;46.748;8.102;2022-11-20T13:05:48;1.10;;;0.80;;
15573;SDS011;7888;46.748;8.102;2022-11-20T13:08:47;1.87;;;0.80;;
15573;SDS011;7888;46.748;8.102;2022-11-20T13:19:30;0.67;;;0.50;;
15573;SDS011;7888;46.748;8.102;2022-11-20T13:21:57;1.10;;;0.50;;
15573;SDS011;7888;46.748;8.102;2022-11-20T13:24:24;0.60;;;0.47;;
15573;SDS011;7888;46.748;8.102;2022-11-20T13:29:33;0.70;;;0.50;;
15573;SDS011;7888;46.748;8.102;2022-11-20T13:34:54;1.20;;;0.80;;
15573;SDS011;7888;46.748;8.102;2022-11-20T13:42:35;2.43;;;0.50;;
15573;SDS011;7888;46.748;8.102;2022-11-20T13:45:23;1.13;;;0.50;;
15573;SDS011;7888;46.748;8.102;2022-11-20T13:47:53;0.93;;;0.40;;
15573;SDS011;7888;46.748;8.102;2022-11-20T13:50:44;2.53;;;0.80;;
15573;SDS011;7888;46.748;8.102;2022-11-20T13:53:47;0.70;;;0.50;;
15573;SDS011;7888;46.748;8.102;2022-11-20T14:02:26;1.40;;;0.30;;
15573;SDS011;7888;46.748;8.102;2022-11-20T14:04:56;0.50;;;0.40;;
15573;SDS011;7888;46.748;8.102;2022-11-20T14:07:27;0.30;;;0.30;;
15573;SDS011;7888;46.748;8.102;2022-11-20T14:10:02;0.30;;;0.30;;
15573;SDS011;7888;46.748;8.102;2022-11-20T14:12:30;0.50;;;0.30;;
15573;SDS011;7888;46.748;8.102;2022-11-20T14:14:58;1.00;;;0.77;;
15573;SDS011;7888;46.748;8.102;2022-11-20T14:20:04;2.93;;;0.70;;
15573;SDS011;7888;46.748;8.102;2022-11-20T14:22:37;1.73;;;0.60;;
15573;SDS011;7888;46.748;8.102;2022-11-20T14:25:18;1.23;;;0.60;;
15573;SDS011;7888;46.748;8.102;2022-11-20T14:27:50;1.23;;;0.83;;
15573;SDS011;7888;46.748;8.102;2022-11-20T14:30:24;1.30;;;0.60;;
15573;SDS011;7888;46.748;8.102;2022-11-20T14:33:03;0.70;;;0.67;;
15573;SDS011;7888;46.748;8.102;2022-11-20T14:35:30;0.87;;;0.73;;
15573;SDS011;7888;46.748;8.102;2022-11-20T14:38:04;1.77;;;0.63;;
15573;SDS011;7888;46.748;8.102;2022-11-20T14:40:38;0.40;;;0.40;;
15573;SDS011;7888;46.748;8.102;2022-11-20T14:43:18;3.90;;;0.70;;
15573;SDS011;7888;46.748;8.102;2022-11-20T14:45:49;0.50;;;0.40;;
15573;SDS011;7888;46.748;8.102;2022-11-20T14:48:39;0.47;;;0.47;;
15573;SDS011;7888;46.748;8.102;2022-11-20T14:53:52;1.87;;;0.60;;
15573;SDS011;7888;46.748;8.102;2022-11-20T14:56:22;0.83;;;0.70;;
15573;SDS011;7888;46.748;8.102;2022-11-20T14:58:55;0.70;;;0.60;;
15573;SDS011;7888;46.748;8.102;2022-11-20T15:01:26;3.27;;;0.70;;
15573;SDS011;7888;46.748;8.102;2022-11-20T15:04:08;1.17;;;0.57;;
15573;SDS011;7888;46.748;8.102;2022-11-20T15:06:36;1.90;;;0.70;;
15573;SDS011;7888;46.748;8.102;2022-11-20T15:09:03;1.03;;;0.73;;
15573;SDS011;7888;46.748;8.102;2022-11-20T15:11:38;2.73;;;1.00;;
15573;SDS011;7888;46.748;8.102;2022-11-20T15:14:05;1.20;;;1.00;;
15573;SDS011;7888;46.748;8.102;2022-11-20T15:16:31;1.20;;;1.00;;
15573;SDS011;7888;46.748;8.102;2022-11-20T15:18:58;0.80;;;0.70;;
15573;SDS011;7888;46.748;8.102;2022-11-20T15:21:26;0.67;;;0.67;;
15573;SDS011;7888;46.748;8.102;2022-11-20T15:23:51;1.97;;;0.73;;
15573;SDS011;7888;46.748;8.102;2022-11-20T15:26:23;1.67;;;0.70;;
15573;SDS011;7888;46.748;8.102;2022-11-20T15:28:52;0.90;;;0.70;;
15573;SDS011;7888;46.748;8.102;2022-11-20T15:31:19;0.70;;;0.60;;
15573;SDS011;7888;46.748;8.102;2022-11-20T15:33:47;0.50;;;0.30;;
15573;SDS011;7888;46.748;8.102;2022-11-20T15:36:14;2.20;;;0.70;;
15573;SDS011;7888;46.748;8.102;2022-11-20T15:38:40;2.67;;;1.60;;
15573;SDS011;7888;46.748;8.102;2022-11-20T15:41:06;4.27;;;2.03;;
15573;SDS011;7888;46.748;8.102;2022-11-20T15:43:33;1.27;;;0.93;;
15573;SDS011;7888;46.748;8.102;2022-11-20T15:46:00;2.07;;;0.73;;
15573;SDS011;7888;46.748;8.102;2022-11-20T15:48:39;2.57;;;0.67;;
15573;SDS011;7888;46.748;8.102;2022-11-20T15:53:35;2.00;;;1.43;;
15573;SDS011;7888;46.748;8.102;2022-11-20T15:56:02;2.13;;;1.40;;
15573;SDS011;7888;46.748;8.102;2022-11-20T15:58:29;2.20;;;1.90;;
15573;SDS011;7888;46.748;8.102;2022-11-20T16:00:55;2.87;;;2.43;;
15573;SDS011;7888;46.748;8.102;2022-11-20T16:03:21;2.83;;;2.27;;
15573;SDS011;7888;46.748;8.102;2022-11-20T16:05:47;4.00;;;2.83;;
15573;SDS011;7888;46.748;8.102;2022-11-20T16:08:14;1.93;;;1.63;;
15573;SDS011;7888;46.748;8.102;2022-11-20T16:10:40;2.30;;;1.80;;
15573;SDS011;7888;46.748;8.102;2022-11-20T16:13:13;1.67;;;1.20;;
15573;SDS011;7888;46.748;8.102;2022-11-20T16:16:06;2.43;;;1.70;;
15573;SDS011;7888;46.748;8.102;2022-11-20T16:18:46;1.70;;;1.10;;
15573;SDS011;7888;46.748;8.102;2022-11-20T16:21:11;1.07;;;0.97;;
15573;SDS011;7888;46.748;8.102;2022-11-20T16:23:40;1.23;;;1.00;;
15573;SDS011;7888;46.748;8.102;2022-11-20T16:26:11;2.83;;;1.40;;
15573;SDS011;7888;46.748;8.102;2022-11-20T16:28:39;2.00;;;1.47;;
15573;SDS011;7888;46.748;8.102;2022-11-20T16:31:09;1.90;;;1.70;;
15573;SDS011;7888;46.748;8.102;2022-11-20T16:33:48;2.10;;;1.83;;
15573;SDS011;7888;46.748;8.102;2022-11-20T16:36:16;2.57;;;1.80;;
15573;SDS011;7888;46.748;8.102;2022-11-20T16:38:43;3.20;;;1.60;;
15573;SDS011;7888;46.748;8.102;2022-11-20T16:41:09;4.87;;;2.00;;
15573;SDS011;7888;46.748;8.102;2022-11-20T16:46:15;1.03;;;0.93;;
15573;SDS011;7888;46.748;8.102;2022-11-20T16:48:45;1.13;;;0.80;;
15573;SDS011;7888;46.748;8.102;2022-11-20T16:51:28;0.70;;;0.67;;
15573;SDS011;7888;46.748;8.102;2022-11-20T16:53:56;0.60;;;0.60;;
15573;SDS011;7888;46.748;8.102;2022-11-20T16:56:26;1.00;;;0.70;;
15573;SDS011;7888;46.748;8.102;2022-11-20T16:58:53;1.07;;;0.70;;
15573;SDS011;7888;46.748;8.102;2022-11-20T17:01:22;2.00;;;0.67;;
15573;SDS011;7888;46.748;8.102;2022-11-20T17:03:56;0.80;;;0.60;;
15573;SDS011;7888;46.748;8.102;2022-11-20T17:06:32;1.23;;;0.60;;
15573;SDS011;7888;46.748;8.102;2022-11-20T17:09:02;0.90;;;0.50;;
15573;SDS011;7888;46.748;8.102;2022-11-20T17:11:29;1.10;;;0.70;;
15573;SDS011;7888;46.748;8.102;2022-11-20T17:13:55;2.73;;;0.77;;